VKG1398 EFOU-LGRP
Flight info
| Callsign | VKG1398 |
|---|---|
| Flight time | N/A |
| Altitude | 34000 |
| Route | AHDG/30 IXONO T255 VAXUN DCT RIKUM DCT DETNI DCT BOLBO/N0448F350 DCT RENDO M748 HDO DCT GOLOP DCT ODNEM DCT XOMBA DCT BABIT DCT NISVA DCT RODIP DCT BELGI UN131 DUGLA UN129 PIROX |
| Aircraft | A321/M-SDE3FGHIRWY/LB1 |
Departure
| Time | N/A |
|---|---|
| Airport | Oulu Airport (EFOU) |
Arrival
| Time | 2026-04-29 18:55 |
|---|---|
| Airport | Rhodes International Airport "Diagoras" (LGRP) |
| Time | Latitude | Longitude | Altitude | Speed | Heading |
|---|---|---|---|---|---|
| 2026-04-29 15:08 | 61.04130 | 20.48739 | 34368 ft | 525 kts | 209° |
| 2026-04-29 15:09 | 60.97616 | 20.41939 | 34369 ft | 525 kts | 209° |
| 2026-04-29 15:09 | 60.91095 | 20.35168 | 34365 ft | 525 kts | 209° |
| 2026-04-29 15:10 | 60.84569 | 20.28415 | 34369 ft | 525 kts | 209° |
| 2026-04-29 15:10 | 60.78040 | 20.21682 | 34368 ft | 525 kts | 209° |
| 2026-04-29 15:11 | 60.71505 | 20.14981 | 34373 ft | 526 kts | 208° |
| 2026-04-29 15:11 | 60.64960 | 20.08310 | 34365 ft | 526 kts | 208° |
| 2026-04-29 15:12 | 60.58410 | 20.01670 | 34375 ft | 526 kts | 208° |
| 2026-04-29 15:12 | 60.51900 | 19.95091 | 34378 ft | 526 kts | 208° |
| 2026-04-29 15:13 | 60.45341 | 19.88483 | 34378 ft | 526 kts | 208° |
| 2026-04-29 15:13 | 60.38773 | 19.81893 | 34377 ft | 526 kts | 208° |
| 2026-04-29 15:14 | 60.32196 | 19.75329 | 34384 ft | 527 kts | 208° |
| 2026-04-29 15:14 | 60.25617 | 19.68792 | 34392 ft | 527 kts | 208° |
| 2026-04-29 15:15 | 60.19031 | 19.62277 | 34367 ft | 527 kts | 208° |
| 2026-04-29 15:15 | 60.12481 | 19.55835 | 34368 ft | 527 kts | 208° |
| 2026-04-29 15:16 | 60.05883 | 19.49380 | 34380 ft | 527 kts | 207° |
| 2026-04-29 15:16 | 59.99290 | 19.42945 | 34373 ft | 527 kts | 208° |
| 2026-04-29 15:17 | 59.92763 | 19.36290 | 34383 ft | 526 kts | 212° |
| 2026-04-29 15:17 | 59.86487 | 19.28794 | 34381 ft | 525 kts | 214° |
| 2026-04-29 15:18 | 59.80274 | 19.21110 | 34373 ft | 526 kts | 214° |
| 2026-04-29 15:18 | 59.73981 | 19.13673 | 34385 ft | 526 kts | 212° |
| 2026-04-29 15:19 | 59.67627 | 19.06447 | 34382 ft | 527 kts | 212° |
| 2026-04-29 15:19 | 59.61315 | 18.99279 | 34374 ft | 526 kts | 212° |
| 2026-04-29 15:20 | 59.54970 | 18.92015 | 34386 ft | 526 kts | 212° |
| 2026-04-29 15:20 | 59.48636 | 18.84766 | 34385 ft | 527 kts | 212° |
| 2026-04-29 15:21 | 59.42287 | 18.77549 | 34386 ft | 527 kts | 212° |
| 2026-04-29 15:21 | 59.35932 | 18.70352 | 34385 ft | 527 kts | 212° |
| 2026-04-29 15:22 | 59.29573 | 18.63205 | 34386 ft | 528 kts | 212° |
| 2026-04-29 15:22 | 59.23234 | 18.56121 | 34385 ft | 527 kts | 212° |
| 2026-04-29 15:23 | 59.16861 | 18.49007 | 34381 ft | 527 kts | 212° |
| 2026-04-29 15:23 | 59.10481 | 18.41917 | 34363 ft | 527 kts | 212° |
| 2026-04-29 15:24 | 59.04103 | 18.34868 | 34363 ft | 527 kts | 211° |
| 2026-04-29 15:24 | 58.97756 | 18.27874 | 34370 ft | 527 kts | 211° |
| 2026-04-29 15:25 | 58.91372 | 18.20880 | 34371 ft | 527 kts | 211° |
| 2026-04-29 15:25 | 58.84970 | 18.13913 | 34370 ft | 527 kts | 211° |
| 2026-04-29 15:26 | 58.78581 | 18.06964 | 34365 ft | 527 kts | 211° |
| 2026-04-29 15:26 | 58.72190 | 18.00029 | 34365 ft | 527 kts | 211° |
| 2026-04-29 15:27 | 58.65789 | 17.93128 | 34366 ft | 527 kts | 211° |
| 2026-04-29 15:27 | 58.59419 | 17.86299 | 34365 ft | 527 kts | 211° |
| 2026-04-29 15:28 | 58.53001 | 17.79461 | 34370 ft | 527 kts | 211° |
| 2026-04-29 15:28 | 58.46588 | 17.72636 | 34369 ft | 527 kts | 211° |
| 2026-04-29 15:29 | 58.40186 | 17.65834 | 34342 ft | 526 kts | 211° |
| 2026-04-29 15:30 | 58.27350 | 17.52317 | 34376 ft | 526 kts | 211° |
| 2026-04-29 15:30 | 58.20984 | 17.45654 | 34377 ft | 525 kts | 211° |
| 2026-04-29 15:31 | 58.14577 | 17.38971 | 34377 ft | 525 kts | 211° |
| 2026-04-29 15:31 | 58.08178 | 17.32322 | 34368 ft | 525 kts | 211° |
| 2026-04-29 15:32 | 58.01771 | 17.25711 | 34370 ft | 524 kts | 210° |
| 2026-04-29 15:32 | 57.95366 | 17.19139 | 34369 ft | 524 kts | 210° |
| 2026-04-29 15:33 | 57.88964 | 17.12574 | 34373 ft | 524 kts | 210° |
| 2026-04-29 15:33 | 57.82557 | 17.06019 | 34372 ft | 524 kts | 210° |
| 2026-04-29 15:34 | 57.76145 | 16.99491 | 34369 ft | 524 kts | 210° |
| 2026-04-29 15:34 | 57.69770 | 16.93031 | 34372 ft | 524 kts | 210° |
| 2026-04-29 15:35 | 57.63352 | 16.86570 | 34371 ft | 524 kts | 210° |
| 2026-04-29 15:35 | 57.56928 | 16.80128 | 34369 ft | 524 kts | 210° |
| 2026-04-29 15:36 | 57.50498 | 16.73700 | 34378 ft | 524 kts | 210° |
| 2026-04-29 15:36 | 57.44071 | 16.67283 | 34380 ft | 524 kts | 210° |
| 2026-04-29 15:37 | 57.37669 | 16.60931 | 34367 ft | 524 kts | 210° |
| 2026-04-29 15:37 | 57.31234 | 16.54578 | 34380 ft | 524 kts | 210° |
| 2026-04-29 15:38 | 57.24797 | 16.48246 | 34374 ft | 524 kts | 210° |
| 2026-04-29 15:38 | 57.18361 | 16.41925 | 34370 ft | 524 kts | 210° |
| 2026-04-29 15:39 | 57.11924 | 16.35622 | 34363 ft | 523 kts | 210° |
| 2026-04-29 15:39 | 57.05508 | 16.29378 | 34372 ft | 523 kts | 210° |
| 2026-04-29 15:40 | 56.99063 | 16.23138 | 34379 ft | 523 kts | 210° |
| 2026-04-29 15:40 | 56.92617 | 16.16935 | 34407 ft | 523 kts | 209° |
| 2026-04-29 15:41 | 56.86180 | 16.10741 | 34418 ft | 523 kts | 210° |
| 2026-04-29 15:41 | 56.79732 | 16.04535 | 34409 ft | 523 kts | 209° |
| 2026-04-29 15:42 | 56.73283 | 15.98391 | 34416 ft | 523 kts | 209° |
| 2026-04-29 15:42 | 56.66821 | 15.92277 | 34374 ft | 523 kts | 209° |
| 2026-04-29 15:43 | 56.60372 | 15.86172 | 34371 ft | 523 kts | 209° |
| 2026-04-29 15:43 | 56.53922 | 15.80085 | 34321 ft | 522 kts | 209° |
| 2026-04-29 15:44 | 56.47468 | 15.74005 | 34398 ft | 524 kts | 209° |
| 2026-04-29 15:44 | 56.41041 | 15.67994 | 34404 ft | 523 kts | 208° |
| 2026-04-29 15:45 | 56.34577 | 15.61987 | 34417 ft | 522 kts | 208° |
| 2026-04-29 15:45 | 56.28130 | 15.56008 | 34399 ft | 521 kts | 208° |
| 2026-04-29 15:46 | 56.21682 | 15.50054 | 34398 ft | 520 kts | 208° |
| 2026-04-29 15:46 | 56.15236 | 15.44105 | 34400 ft | 520 kts | 208° |
| 2026-04-29 15:47 | 56.08810 | 15.38181 | 34404 ft | 519 kts | 208° |
| 2026-04-29 15:47 | 56.02423 | 15.32348 | 34407 ft | 518 kts | 208° |
| 2026-04-29 15:48 | 55.96008 | 15.26509 | 34406 ft | 517 kts | 208° |
| 2026-04-29 15:48 | 55.89596 | 15.20692 | 34384 ft | 516 kts | 208° |
| 2026-04-29 15:49 | 55.83227 | 15.14932 | 34399 ft | 515 kts | 208° |
| 2026-04-29 15:49 | 55.76848 | 15.09176 | 34399 ft | 513 kts | 208° |
| 2026-04-29 15:50 | 55.70455 | 15.03442 | 34403 ft | 512 kts | 208° |
| 2026-04-29 15:50 | 55.65169 | 14.98717 | 34381 ft | 512 kts | 208° |
| 2026-04-29 15:51 | 55.57774 | 14.92126 | 34394 ft | 511 kts | 208° |
| 2026-04-29 15:51 | 55.51429 | 14.86495 | 34397 ft | 510 kts | 208° |
| 2026-04-29 15:52 | 55.46163 | 14.81836 | 34392 ft | 510 kts | 208° |
| 2026-04-29 15:52 | 55.39826 | 14.76237 | 34396 ft | 509 kts | 208° |
| 2026-04-29 15:53 | 55.33491 | 14.70664 | 34408 ft | 509 kts | 208° |
| 2026-04-29 15:53 | 55.27159 | 14.65131 | 34423 ft | 508 kts | 208° |
| 2026-04-29 15:54 | 55.20834 | 14.59613 | 34432 ft | 507 kts | 208° |
| 2026-04-29 15:54 | 55.14509 | 14.54115 | 34423 ft | 507 kts | 208° |
| 2026-04-29 15:55 | 55.08177 | 14.48646 | 34419 ft | 507 kts | 208° |
| 2026-04-29 15:55 | 55.01856 | 14.43187 | 34414 ft | 507 kts | 208° |
| 2026-04-29 15:56 | 54.95524 | 14.37734 | 34401 ft | 507 kts | 208° |
| 2026-04-29 15:56 | 54.89013 | 14.33291 | 34383 ft | 507 kts | 193° |
| 2026-04-29 15:57 | 54.82146 | 14.30479 | 34376 ft | 507 kts | 193° |
| 2026-04-29 15:57 | 54.75278 | 14.27687 | 34369 ft | 506 kts | 193° |
| 2026-04-29 15:58 | 54.68425 | 14.24897 | 34366 ft | 506 kts | 193° |
| 2026-04-29 15:58 | 54.61579 | 14.22109 | 34370 ft | 505 kts | 193° |
| 2026-04-29 15:59 | 54.54752 | 14.19336 | 34374 ft | 504 kts | 193° |
| 2026-04-29 15:59 | 54.47924 | 14.16588 | 34368 ft | 503 kts | 193° |
| 2026-04-29 16:00 | 54.41097 | 14.13850 | 34354 ft | 503 kts | 193° |
| 2026-04-29 16:00 | 54.34295 | 14.11117 | 34372 ft | 501 kts | 193° |
| 2026-04-29 16:01 | 54.27510 | 14.08384 | 34370 ft | 500 kts | 193° |
| 2026-04-29 16:01 | 54.20731 | 14.05688 | 34371 ft | 500 kts | 193° |
| 2026-04-29 16:02 | 54.13967 | 14.03014 | 34370 ft | 498 kts | 193° |
| 2026-04-29 16:02 | 54.07219 | 14.00349 | 34371 ft | 497 kts | 193° |
| 2026-04-29 16:03 | 54.00483 | 13.97691 | 34370 ft | 497 kts | 193° |
| 2026-04-29 16:03 | 53.93795 | 13.95059 | 34347 ft | 496 kts | 193° |
| 2026-04-29 16:04 | 53.87074 | 13.92420 | 34371 ft | 495 kts | 193° |
| 2026-04-29 16:04 | 53.80370 | 13.89806 | 34373 ft | 493 kts | 193° |
| 2026-04-29 16:05 | 53.73682 | 13.87215 | 34369 ft | 492 kts | 193° |
| 2026-04-29 16:05 | 53.67009 | 13.84629 | 34357 ft | 491 kts | 193° |
| 2026-04-29 16:06 | 53.60358 | 13.82041 | 34376 ft | 490 kts | 193° |
| 2026-04-29 16:06 | 53.53767 | 13.79488 | 34373 ft | 488 kts | 193° |
| 2026-04-29 16:07 | 53.47144 | 13.76945 | 34370 ft | 487 kts | 193° |
| 2026-04-29 16:07 | 53.40537 | 13.74420 | 34364 ft | 486 kts | 193° |
| 2026-04-29 16:08 | 53.33939 | 13.71910 | 34361 ft | 485 kts | 193° |
| 2026-04-29 16:08 | 53.27410 | 13.69411 | 34358 ft | 484 kts | 193° |
| 2026-04-29 16:09 | 53.20845 | 13.66918 | 34338 ft | 483 kts | 193° |
| 2026-04-29 16:09 | 53.14289 | 13.64443 | 34340 ft | 482 kts | 194° |
| 2026-04-29 16:10 | 53.07746 | 13.61971 | 34343 ft | 482 kts | 194° |
| 2026-04-29 16:10 | 53.01205 | 13.59509 | 34333 ft | 482 kts | 193° |
| 2026-04-29 16:11 | 52.94652 | 13.57070 | 34327 ft | 481 kts | 194° |
| 2026-04-29 16:11 | 52.88160 | 13.54654 | 34333 ft | 480 kts | 194° |
| 2026-04-29 16:12 | 52.81648 | 13.52216 | 34335 ft | 480 kts | 194° |
| 2026-04-29 16:12 | 52.75141 | 13.49788 | 34328 ft | 479 kts | 194° |
| 2026-04-29 16:13 | 52.68623 | 13.47382 | 34338 ft | 479 kts | 194° |
| 2026-04-29 16:13 | 52.62125 | 13.44988 | 34354 ft | 479 kts | 194° |
| 2026-04-29 16:14 | 52.55636 | 13.42597 | 34375 ft | 479 kts | 194° |
| 2026-04-29 16:14 | 52.49111 | 13.40203 | 34381 ft | 479 kts | 194° |
| 2026-04-29 16:15 | 52.42660 | 13.37850 | 34414 ft | 477 kts | 194° |
| 2026-04-29 16:15 | 52.36182 | 13.35491 | 34303 ft | 476 kts | 194° |
| 2026-04-29 16:16 | 52.29709 | 13.33132 | 34289 ft | 475 kts | 194° |
| 2026-04-29 16:16 | 52.23250 | 13.30790 | 34279 ft | 475 kts | 194° |
| 2026-04-29 16:17 | 52.16838 | 13.28478 | 34286 ft | 474 kts | 194° |
| 2026-04-29 16:17 | 52.10415 | 13.26160 | 34276 ft | 473 kts | 194° |
| 2026-04-29 16:18 | 52.03979 | 13.23841 | 34278 ft | 473 kts | 194° |
| 2026-04-29 16:18 | 51.97548 | 13.21538 | 34275 ft | 473 kts | 194° |
| 2026-04-29 16:19 | 51.91126 | 13.19257 | 34468 ft | 473 kts | 194° |
| 2026-04-29 16:19 | 51.87871 | 13.18382 | 34659 ft | 475 kts | 186° |
| 2026-04-29 16:19 | 51.84571 | 13.18256 | 34834 ft | 476 kts | 177° |
| 2026-04-29 16:19 | 51.81264 | 13.18735 | 35015 ft | 476 kts | 173° |
| 2026-04-29 16:20 | 51.78016 | 13.19792 | 35176 ft | 476 kts | 162° |
| 2026-04-29 16:20 | 51.74985 | 13.21896 | 35265 ft | 476 kts | 147° |
| 2026-04-29 16:20 | 51.72340 | 13.25090 | 35385 ft | 474 kts | 135° |
| 2026-04-29 16:21 | 51.67525 | 13.32387 | 35361 ft | 475 kts | 136° |
| 2026-04-29 16:21 | 51.62618 | 13.39422 | 35330 ft | 475 kts | 137° |
| 2026-04-29 16:22 | 51.57631 | 13.46411 | 35296 ft | 475 kts | 137° |
| 2026-04-29 16:22 | 51.52665 | 13.53427 | 35262 ft | 475 kts | 137° |
| 2026-04-29 16:23 | 51.47706 | 13.60476 | 35246 ft | 476 kts | 137° |
| 2026-04-29 16:23 | 51.42735 | 13.67512 | 35240 ft | 476 kts | 137° |
| 2026-04-29 16:24 | 51.37756 | 13.74516 | 35237 ft | 477 kts | 137° |
| 2026-04-29 16:24 | 51.32774 | 13.81516 | 35307 ft | 477 kts | 137° |
| 2026-04-29 16:25 | 51.27778 | 13.88508 | 35324 ft | 477 kts | 137° |
| 2026-04-29 16:25 | 51.22818 | 13.95437 | 35329 ft | 477 kts | 137° |
| 2026-04-29 16:26 | 51.17823 | 14.02387 | 35310 ft | 477 kts | 138° |
| 2026-04-29 16:26 | 51.12820 | 14.09329 | 35227 ft | 477 kts | 138° |
| 2026-04-29 16:27 | 51.07807 | 14.16257 | 35231 ft | 477 kts | 138° |
| 2026-04-29 16:27 | 51.02800 | 14.23163 | 35224 ft | 477 kts | 138° |
| 2026-04-29 16:28 | 50.97783 | 14.30059 | 35248 ft | 477 kts | 138° |
| 2026-04-29 16:28 | 50.92343 | 14.36085 | 35217 ft | 478 kts | 154° |
| 2026-04-29 16:29 | 50.86055 | 14.39409 | 35199 ft | 477 kts | 168° |
| 2026-04-29 16:29 | 50.79619 | 14.41776 | 35198 ft | 478 kts | 168° |
| 2026-04-29 16:30 | 50.73139 | 14.44189 | 35201 ft | 479 kts | 168° |
| 2026-04-29 16:30 | 50.66648 | 14.46603 | 35183 ft | 479 kts | 168° |
| 2026-04-29 16:31 | 50.60296 | 14.49778 | 35195 ft | 480 kts | 154° |
| 2026-04-29 16:31 | 50.54823 | 14.55699 | 35227 ft | 479 kts | 135° |
| 2026-04-29 16:32 | 50.50190 | 14.63235 | 35202 ft | 479 kts | 133° |
| 2026-04-29 16:32 | 50.45570 | 14.70695 | 35197 ft | 480 kts | 133° |
| 2026-04-29 16:33 | 50.38564 | 14.81928 | 35200 ft | 480 kts | 133° |
| 2026-04-29 16:33 | 50.33889 | 14.89423 | 35199 ft | 481 kts | 133° |
| 2026-04-29 16:34 | 50.29213 | 14.96912 | 35209 ft | 482 kts | 133° |
| 2026-04-29 16:34 | 50.24526 | 15.04405 | 35188 ft | 483 kts | 134° |
| 2026-04-29 16:35 | 50.19838 | 15.11856 | 35188 ft | 483 kts | 134° |
| 2026-04-29 16:35 | 50.15118 | 15.19333 | 35193 ft | 483 kts | 134° |
| 2026-04-29 16:36 | 50.10393 | 15.26807 | 35239 ft | 484 kts | 134° |
| 2026-04-29 16:36 | 50.05662 | 15.34269 | 35237 ft | 485 kts | 134° |
| 2026-04-29 16:37 | 50.00912 | 15.41728 | 35246 ft | 485 kts | 134° |
| 2026-04-29 16:37 | 49.96952 | 15.47927 | 35258 ft | 486 kts | 134° |
| 2026-04-29 16:38 | 49.91408 | 15.56577 | 35196 ft | 486 kts | 134° |
| 2026-04-29 16:38 | 49.86637 | 15.64010 | 35213 ft | 486 kts | 134° |
| 2026-04-29 16:39 | 49.81854 | 15.71452 | 35195 ft | 487 kts | 134° |
| 2026-04-29 16:39 | 49.77059 | 15.78873 | 35181 ft | 488 kts | 135° |
| 2026-04-29 16:40 | 49.72247 | 15.86290 | 35191 ft | 489 kts | 135° |
| 2026-04-29 16:40 | 49.68241 | 15.92443 | 35198 ft | 490 kts | 135° |
| 2026-04-29 16:41 | 49.62619 | 16.01068 | 35205 ft | 490 kts | 135° |
| 2026-04-29 16:41 | 49.57775 | 16.08485 | 35195 ft | 491 kts | 135° |
| 2026-04-29 16:42 | 49.52924 | 16.15907 | 35191 ft | 492 kts | 135° |
| 2026-04-29 16:42 | 49.48845 | 16.22119 | 35165 ft | 492 kts | 136° |
| 2026-04-29 16:43 | 49.43990 | 16.29468 | 35191 ft | 492 kts | 136° |
| 2026-04-29 16:43 | 49.39106 | 16.36842 | 35183 ft | 493 kts | 136° |
| 2026-04-29 16:44 | 49.34206 | 16.44237 | 35185 ft | 494 kts | 136° |
| 2026-04-29 16:44 | 49.29303 | 16.51607 | 35183 ft | 494 kts | 136° |
| 2026-04-29 16:45 | 49.24389 | 16.58975 | 35182 ft | 494 kts | 136° |
| 2026-04-29 16:45 | 49.19466 | 16.66333 | 35243 ft | 495 kts | 137° |
| 2026-04-29 16:46 | 49.14531 | 16.73675 | 35250 ft | 496 kts | 137° |
| 2026-04-29 16:46 | 49.09583 | 16.81039 | 35252 ft | 497 kts | 137° |
| 2026-04-29 16:47 | 49.04620 | 16.88407 | 35174 ft | 498 kts | 137° |
| 2026-04-29 16:47 | 48.99677 | 16.95709 | 35202 ft | 498 kts | 137° |
| 2026-04-29 16:48 | 48.94694 | 17.03039 | 35191 ft | 498 kts | 137° |
| 2026-04-29 16:48 | 48.89697 | 17.10365 | 35160 ft | 499 kts | 138° |
| 2026-04-29 16:49 | 48.84484 | 17.17295 | 35164 ft | 495 kts | 149° |
| 2026-04-29 16:49 | 48.78528 | 17.22454 | 35178 ft | 493 kts | 155° |
| 2026-04-29 16:50 | 48.72506 | 17.27450 | 35179 ft | 494 kts | 155° |
| 2026-04-29 16:50 | 48.66477 | 17.32453 | 35185 ft | 494 kts | 155° |
| 2026-04-29 16:51 | 48.60486 | 17.37420 | 35167 ft | 494 kts | 156° |
| 2026-04-29 16:51 | 48.54448 | 17.42408 | 35173 ft | 495 kts | 156° |
| 2026-04-29 16:52 | 48.48396 | 17.47389 | 35180 ft | 495 kts | 156° |
| 2026-04-29 16:52 | 48.42341 | 17.52355 | 35204 ft | 495 kts | 156° |
| 2026-04-29 16:53 | 48.36276 | 17.57318 | 35162 ft | 496 kts | 156° |
| 2026-04-29 16:53 | 48.30192 | 17.62281 | 35172 ft | 498 kts | 156° |
| 2026-04-29 16:54 | 48.24128 | 17.67220 | 35176 ft | 499 kts | 156° |
| 2026-04-29 16:54 | 48.18009 | 17.72190 | 35175 ft | 500 kts | 156° |
| 2026-04-29 16:55 | 48.11891 | 17.77150 | 35155 ft | 501 kts | 156° |
| 2026-04-29 16:55 | 48.05748 | 17.82105 | 35155 ft | 502 kts | 157° |
| 2026-04-29 16:56 | 47.99582 | 17.87063 | 35157 ft | 503 kts | 157° |
| 2026-04-29 16:56 | 47.93403 | 17.92023 | 35157 ft | 504 kts | 157° |
| 2026-04-29 16:57 | 47.87225 | 17.96971 | 35126 ft | 504 kts | 156° |
| 2026-04-29 16:57 | 47.81042 | 18.01907 | 35159 ft | 505 kts | 156° |
| 2026-04-29 16:58 | 47.74773 | 18.06600 | 35153 ft | 500 kts | 165° |
| 2026-04-29 16:58 | 47.68246 | 18.09863 | 35150 ft | 497 kts | 168° |
| 2026-04-29 16:59 | 47.61668 | 18.13076 | 35125 ft | 497 kts | 167° |
| 2026-04-29 16:59 | 47.55087 | 18.16285 | 35145 ft | 497 kts | 167° |
| 2026-04-29 17:00 | 47.48512 | 18.19495 | 35153 ft | 497 kts | 167° |
| 2026-04-29 17:00 | 47.41934 | 18.22699 | 35152 ft | 498 kts | 167° |
| 2026-04-29 17:01 | 47.35347 | 18.25904 | 35146 ft | 499 kts | 167° |
| 2026-04-29 17:01 | 47.28788 | 18.29077 | 35147 ft | 500 kts | 168° |
| 2026-04-29 17:02 | 47.22175 | 18.32257 | 35149 ft | 500 kts | 168° |
| 2026-04-29 17:02 | 47.15557 | 18.35444 | 35124 ft | 500 kts | 168° |
| 2026-04-29 17:03 | 47.08968 | 18.38611 | 35153 ft | 497 kts | 168° |
| 2026-04-29 17:03 | 47.02383 | 18.41762 | 35166 ft | 497 kts | 168° |
| 2026-04-29 17:04 | 46.95814 | 18.44887 | 35162 ft | 496 kts | 168° |
| 2026-04-29 17:04 | 46.89250 | 18.48011 | 35146 ft | 495 kts | 168° |
| 2026-04-29 17:05 | 46.82707 | 18.51134 | 35168 ft | 494 kts | 168° |
| 2026-04-29 17:05 | 46.76204 | 18.54219 | 35179 ft | 493 kts | 168° |
| 2026-04-29 17:06 | 46.69683 | 18.57294 | 35144 ft | 493 kts | 168° |
| 2026-04-29 17:06 | 46.63164 | 18.60376 | 35168 ft | 492 kts | 168° |
| 2026-04-29 17:07 | 46.56647 | 18.63434 | 35172 ft | 492 kts | 169° |
| 2026-04-29 17:07 | 46.50136 | 18.66481 | 35168 ft | 491 kts | 168° |
| 2026-04-29 17:08 | 46.43625 | 18.69533 | 35146 ft | 491 kts | 169° |
| 2026-04-29 17:08 | 46.37174 | 18.72550 | 35153 ft | 491 kts | 169° |
| 2026-04-29 17:09 | 46.30652 | 18.75590 | 35167 ft | 490 kts | 169° |
| 2026-04-29 17:09 | 46.24166 | 18.78603 | 35171 ft | 490 kts | 169° |
| 2026-04-29 17:10 | 46.17681 | 18.81612 | 35155 ft | 488 kts | 169° |
| 2026-04-29 17:10 | 46.11208 | 18.84604 | 35165 ft | 488 kts | 169° |
| 2026-04-29 17:11 | 46.04784 | 18.87555 | 35169 ft | 487 kts | 169° |
| 2026-04-29 17:11 | 45.98324 | 18.90526 | 35151 ft | 487 kts | 168° |
| 2026-04-29 17:12 | 45.92169 | 18.94877 | 35166 ft | 501 kts | 149° |
| 2026-04-29 17:12 | 45.87795 | 19.00419 | 35164 ft | 506 kts | 139° |
| 2026-04-29 17:13 | 45.81931 | 19.08698 | 35157 ft | 506 kts | 139° |
| 2026-04-29 17:13 | 45.76885 | 19.15730 | 35158 ft | 506 kts | 139° |
| 2026-04-29 17:14 | 45.71827 | 19.22748 | 35155 ft | 506 kts | 139° |
| 2026-04-29 17:14 | 45.66807 | 19.29712 | 35164 ft | 506 kts | 139° |
| 2026-04-29 17:15 | 45.61755 | 19.36733 | 35165 ft | 506 kts | 139° |
| 2026-04-29 17:15 | 45.56703 | 19.43733 | 35167 ft | 506 kts | 139° |
| 2026-04-29 17:16 | 45.51646 | 19.50699 | 35164 ft | 506 kts | 140° |
| 2026-04-29 17:16 | 45.46582 | 19.57655 | 35144 ft | 505 kts | 139° |
| 2026-04-29 17:17 | 45.41555 | 19.64560 | 35162 ft | 504 kts | 139° |
| 2026-04-29 17:17 | 45.36476 | 19.71511 | 35169 ft | 503 kts | 140° |
| 2026-04-29 17:18 | 45.31456 | 19.78359 | 35168 ft | 503 kts | 140° |
| 2026-04-29 17:18 | 45.26401 | 19.85237 | 35167 ft | 504 kts | 140° |
| 2026-04-29 17:19 | 45.21338 | 19.92112 | 35158 ft | 504 kts | 140° |
| 2026-04-29 17:19 | 45.16266 | 19.98981 | 35137 ft | 503 kts | 140° |
| 2026-04-29 17:20 | 45.11191 | 20.05829 | 35150 ft | 503 kts | 140° |
| 2026-04-29 17:20 | 45.06108 | 20.12672 | 35155 ft | 504 kts | 140° |
| 2026-04-29 17:21 | 45.01029 | 20.19495 | 35154 ft | 504 kts | 140° |
| 2026-04-29 17:21 | 44.95946 | 20.26320 | 35136 ft | 504 kts | 140° |
| 2026-04-29 17:22 | 44.90889 | 20.33089 | 35134 ft | 504 kts | 140° |
| 2026-04-29 17:22 | 44.85783 | 20.39897 | 35131 ft | 505 kts | 140° |
| 2026-04-29 17:23 | 44.80671 | 20.46687 | 35132 ft | 505 kts | 140° |
| 2026-04-29 17:23 | 44.75550 | 20.53472 | 35141 ft | 505 kts | 140° |
| 2026-04-29 17:24 | 44.70468 | 20.60203 | 35136 ft | 505 kts | 140° |
| 2026-04-29 17:24 | 44.65337 | 20.66978 | 35122 ft | 505 kts | 140° |
| 2026-04-29 17:25 | 44.60205 | 20.73728 | 35133 ft | 505 kts | 140° |
| 2026-04-29 17:25 | 44.55081 | 20.80458 | 35149 ft | 504 kts | 140° |
| 2026-04-29 17:26 | 44.49958 | 20.87171 | 35149 ft | 504 kts | 140° |
| 2026-04-29 17:26 | 44.44827 | 20.93876 | 35148 ft | 504 kts | 140° |
| 2026-04-29 17:27 | 44.39694 | 21.00556 | 35118 ft | 504 kts | 140° |
| 2026-04-29 17:27 | 44.34598 | 21.07175 | 35151 ft | 503 kts | 140° |
| 2026-04-29 17:28 | 44.29478 | 21.13811 | 35159 ft | 502 kts | 140° |
| 2026-04-29 17:28 | 44.24356 | 21.20441 | 35158 ft | 501 kts | 140° |
| 2026-04-29 17:29 | 44.19245 | 21.27045 | 35153 ft | 501 kts | 140° |
| 2026-04-29 17:29 | 44.14990 | 21.32517 | 35155 ft | 501 kts | 141° |
| 2026-04-29 17:30 | 44.09003 | 21.40189 | 35139 ft | 500 kts | 140° |
| 2026-04-29 17:30 | 44.03921 | 21.46698 | 35148 ft | 499 kts | 140° |
| 2026-04-29 17:31 | 43.98806 | 21.53242 | 35158 ft | 499 kts | 140° |
| 2026-04-29 17:31 | 43.93691 | 21.59771 | 35149 ft | 500 kts | 140° |
| 2026-04-29 17:32 | 43.89426 | 21.65184 | 35143 ft | 499 kts | 140° |
| 2026-04-29 17:32 | 43.84303 | 21.71681 | 35123 ft | 499 kts | 140° |
| 2026-04-29 17:33 | 43.79182 | 21.78162 | 35135 ft | 498 kts | 140° |
| 2026-04-29 17:33 | 43.74066 | 21.84628 | 35134 ft | 498 kts | 140° |
| 2026-04-29 17:34 | 43.68944 | 21.91084 | 35135 ft | 498 kts | 141° |
| 2026-04-29 17:34 | 43.63813 | 21.97514 | 35138 ft | 498 kts | 141° |
| 2026-04-29 17:35 | 43.56149 | 22.07120 | 35132 ft | 497 kts | 140° |
| 2026-04-29 17:36 | 43.51023 | 22.13526 | 35142 ft | 497 kts | 140° |
| 2026-04-29 17:36 | 43.45903 | 22.19907 | 35145 ft | 496 kts | 141° |
| 2026-04-29 17:37 | 43.40783 | 22.26269 | 35159 ft | 496 kts | 141° |
| 2026-04-29 17:37 | 43.35656 | 22.32621 | 35150 ft | 496 kts | 141° |
| 2026-04-29 17:38 | 43.30533 | 22.38974 | 35138 ft | 495 kts | 140° |
| 2026-04-29 17:38 | 43.25419 | 22.45305 | 35152 ft | 494 kts | 141° |
| 2026-04-29 17:39 | 43.20330 | 22.51567 | 35152 ft | 494 kts | 141° |
| 2026-04-29 17:39 | 43.15209 | 22.57835 | 35155 ft | 494 kts | 141° |
| 2026-04-29 17:40 | 43.10082 | 22.64113 | 35154 ft | 494 kts | 141° |
| 2026-04-29 17:40 | 43.04963 | 22.70373 | 35141 ft | 493 kts | 141° |
| 2026-04-29 17:41 | 42.99847 | 22.76624 | 35151 ft | 493 kts | 141° |
| 2026-04-29 17:41 | 42.94750 | 22.82867 | 35160 ft | 492 kts | 140° |
| 2026-04-29 17:42 | 42.89727 | 22.89224 | 35159 ft | 492 kts | 139° |
| 2026-04-29 17:42 | 42.84734 | 22.95632 | 35168 ft | 492 kts | 139° |
| 2026-04-29 17:43 | 42.79724 | 23.01996 | 35144 ft | 492 kts | 139° |
| 2026-04-29 17:43 | 42.74704 | 23.08302 | 35155 ft | 491 kts | 140° |
| 2026-04-29 17:44 | 42.69678 | 23.14581 | 35150 ft | 490 kts | 140° |
| 2026-04-29 17:44 | 42.64696 | 23.20817 | 35155 ft | 490 kts | 140° |
| 2026-04-29 17:45 | 42.59681 | 23.27096 | 35151 ft | 490 kts | 140° |
| 2026-04-29 17:45 | 42.54664 | 23.33365 | 35125 ft | 490 kts | 140° |
| 2026-04-29 17:46 | 42.49645 | 23.39609 | 35140 ft | 489 kts | 140° |
| 2026-04-29 17:46 | 42.44626 | 23.45830 | 35166 ft | 489 kts | 140° |
| 2026-04-29 17:47 | 42.39614 | 23.52033 | 35173 ft | 488 kts | 140° |
| 2026-04-29 17:47 | 42.34592 | 23.58238 | 35171 ft | 488 kts | 140° |
| 2026-04-29 17:48 | 42.29607 | 23.64382 | 35177 ft | 488 kts | 140° |
| 2026-04-29 17:48 | 42.24586 | 23.70557 | 35175 ft | 488 kts | 140° |
| 2026-04-29 17:49 | 42.19546 | 23.76742 | 35180 ft | 488 kts | 140° |
| 2026-04-29 17:49 | 42.14520 | 23.82895 | 35182 ft | 488 kts | 140° |
| 2026-04-29 17:50 | 42.09491 | 23.89049 | 35178 ft | 488 kts | 140° |
| 2026-04-29 17:50 | 42.04527 | 23.95108 | 35173 ft | 487 kts | 140° |
| 2026-04-29 17:51 | 41.99469 | 24.01264 | 35169 ft | 487 kts | 140° |
| 2026-04-29 17:51 | 41.94430 | 24.07368 | 35168 ft | 487 kts | 140° |
| 2026-04-29 17:52 | 41.89392 | 24.13459 | 35179 ft | 487 kts | 140° |
| 2026-04-29 17:52 | 41.84387 | 24.19507 | 35177 ft | 487 kts | 140° |
| 2026-04-29 17:53 | 41.79355 | 24.25584 | 35177 ft | 486 kts | 140° |
| 2026-04-29 17:53 | 41.74318 | 24.31641 | 35173 ft | 486 kts | 140° |
| 2026-04-29 17:54 | 41.69286 | 24.37672 | 35179 ft | 485 kts | 140° |
| 2026-04-29 17:54 | 41.64253 | 24.43702 | 35179 ft | 486 kts | 140° |
| 2026-04-29 17:55 | 41.59215 | 24.49725 | 35178 ft | 486 kts | 140° |
| 2026-04-29 17:55 | 41.54169 | 24.55743 | 35185 ft | 486 kts | 140° |
| 2026-04-29 17:56 | 41.49127 | 24.61761 | 35178 ft | 486 kts | 140° |
| 2026-04-29 17:56 | 41.44109 | 24.67719 | 35187 ft | 486 kts | 140° |
| 2026-04-29 17:57 | 41.39104 | 24.73783 | 35181 ft | 486 kts | 138° |
| 2026-04-29 17:57 | 41.34288 | 24.80118 | 35186 ft | 486 kts | 136° |
| 2026-04-29 17:58 | 41.29527 | 24.86513 | 35187 ft | 486 kts | 136° |
| 2026-04-29 17:58 | 41.24715 | 24.92834 | 35180 ft | 486 kts | 137° |
| 2026-04-29 17:59 | 41.19867 | 24.99103 | 35170 ft | 485 kts | 137° |
| 2026-04-29 17:59 | 41.15027 | 25.05350 | 35170 ft | 485 kts | 137° |
| 2026-04-29 18:00 | 41.10192 | 25.11602 | 35177 ft | 485 kts | 137° |
| 2026-04-29 18:00 | 41.05386 | 25.17810 | 35172 ft | 485 kts | 137° |
| 2026-04-29 18:01 | 41.00550 | 25.24041 | 35176 ft | 485 kts | 137° |
| 2026-04-29 18:01 | 40.95703 | 25.30261 | 35178 ft | 485 kts | 137° |
| 2026-04-29 18:02 | 40.90854 | 25.36482 | 35169 ft | 485 kts | 137° |
| 2026-04-29 18:02 | 40.86010 | 25.42684 | 35174 ft | 484 kts | 137° |
| 2026-04-29 18:03 | 40.81204 | 25.48818 | 35171 ft | 484 kts | 137° |
| 2026-04-29 18:03 | 40.76361 | 25.54992 | 35171 ft | 483 kts | 137° |
| 2026-04-29 18:04 | 40.71522 | 25.61146 | 35165 ft | 483 kts | 137° |
| 2026-04-29 18:04 | 40.66681 | 25.67277 | 35153 ft | 483 kts | 137° |
| 2026-04-29 18:05 | 40.61834 | 25.73411 | 35159 ft | 482 kts | 137° |
| 2026-04-29 18:05 | 40.56987 | 25.79522 | 35160 ft | 482 kts | 137° |
| 2026-04-29 18:06 | 40.52176 | 25.85581 | 35160 ft | 482 kts | 137° |
| 2026-04-29 18:06 | 40.47568 | 25.91973 | 35155 ft | 482 kts | 132° |
| 2026-04-29 18:07 | 40.43147 | 25.98613 | 35153 ft | 483 kts | 132° |
| 2026-04-29 18:07 | 40.38716 | 26.05221 | 35155 ft | 482 kts | 132° |
| 2026-04-29 18:08 | 40.34277 | 26.11818 | 35144 ft | 482 kts | 132° |
| 2026-04-29 18:08 | 40.29843 | 26.18401 | 35147 ft | 481 kts | 132° |
| 2026-04-29 18:09 | 40.25411 | 26.24984 | 35151 ft | 481 kts | 132° |
| 2026-04-29 18:09 | 40.20975 | 26.31555 | 35148 ft | 481 kts | 133° |
| 2026-04-29 18:10 | 40.16570 | 26.38057 | 35148 ft | 480 kts | 133° |
| 2026-04-29 18:10 | 40.12108 | 26.44546 | 35148 ft | 480 kts | 135° |
| 2026-04-29 18:11 | 40.07399 | 26.50715 | 35148 ft | 479 kts | 137° |
| 2026-04-29 18:11 | 40.02577 | 26.56699 | 35136 ft | 478 kts | 138° |
| 2026-04-29 18:12 | 39.97773 | 26.62726 | 35130 ft | 478 kts | 137° |
| 2026-04-29 18:12 | 39.93057 | 26.68780 | 35126 ft | 478 kts | 136° |
| 2026-04-29 18:13 | 39.88320 | 26.74879 | 35126 ft | 479 kts | 137° |
| 2026-04-29 18:13 | 39.83567 | 26.80940 | 35122 ft | 478 kts | 137° |
| 2026-04-29 18:14 | 39.78791 | 26.86991 | 35123 ft | 479 kts | 137° |
| 2026-04-29 18:14 | 39.74004 | 26.93016 | 35108 ft | 479 kts | 138° |
| 2026-04-29 18:15 | 39.69151 | 26.98960 | 35104 ft | 479 kts | 138° |
| 2026-04-29 18:15 | 39.64279 | 27.04878 | 35106 ft | 479 kts | 138° |
| 2026-04-29 18:16 | 39.59424 | 27.10805 | 35115 ft | 480 kts | 138° |
| 2026-04-29 18:16 | 39.54602 | 27.16696 | 35120 ft | 480 kts | 138° |
| 2026-04-29 18:17 | 39.49223 | 27.21698 | 35119 ft | 474 kts | 156° |
| 2026-04-29 18:17 | 39.43060 | 27.24413 | 35107 ft | 466 kts | 172° |
| 2026-04-29 18:18 | 39.36714 | 27.26186 | 35106 ft | 467 kts | 172° |
| 2026-04-29 18:18 | 39.30368 | 27.27995 | 35107 ft | 467 kts | 171° |
| 2026-04-29 18:19 | 39.24022 | 27.29806 | 35098 ft | 467 kts | 171° |
| 2026-04-29 18:19 | 39.17666 | 27.31602 | 35096 ft | 466 kts | 171° |
| 2026-04-29 18:20 | 39.11371 | 27.33384 | 35092 ft | 466 kts | 171° |
| 2026-04-29 18:20 | 39.05032 | 27.35178 | 35087 ft | 466 kts | 171° |
| 2026-04-29 18:21 | 38.98696 | 27.36954 | 35048 ft | 466 kts | 172° |
| 2026-04-29 18:21 | 38.95505 | 27.37510 | 35049 ft | 460 kts | 184° |
| 2026-04-29 18:21 | 38.92308 | 27.37605 | 35065 ft | 461 kts | 179° |
| 2026-04-29 18:22 | 38.85954 | 27.39128 | 35066 ft | 467 kts | 168° |
| 2026-04-29 18:22 | 38.80756 | 27.41051 | 35046 ft | 468 kts | 167° |
| 2026-04-29 18:23 | 38.74474 | 27.43209 | 35053 ft | 467 kts | 170° |
| 2026-04-29 18:23 | 38.68134 | 27.45011 | 35057 ft | 466 kts | 172° |
| 2026-04-29 18:24 | 38.61782 | 27.46691 | 35051 ft | 466 kts | 172° |
| 2026-04-29 18:24 | 38.55468 | 27.48409 | 35034 ft | 466 kts | 171° |
| 2026-04-29 18:25 | 38.49083 | 27.50206 | 35032 ft | 467 kts | 171° |
| 2026-04-29 18:25 | 38.42761 | 27.51991 | 35034 ft | 468 kts | 171° |
| 2026-04-29 18:26 | 38.36397 | 27.53780 | 35017 ft | 468 kts | 171° |
| 2026-04-29 18:26 | 38.30032 | 27.55558 | 35026 ft | 468 kts | 171° |
| 2026-04-29 18:27 | 38.23663 | 27.57335 | 35026 ft | 468 kts | 171° |
| 2026-04-29 18:27 | 38.17303 | 27.59105 | 35016 ft | 468 kts | 171° |
| 2026-04-29 18:28 | 38.10943 | 27.60870 | 35010 ft | 468 kts | 171° |
| 2026-04-29 18:28 | 38.04589 | 27.62627 | 35026 ft | 467 kts | 171° |
| 2026-04-29 18:29 | 37.98233 | 27.64388 | 35011 ft | 466 kts | 171° |
| 2026-04-29 18:29 | 37.91935 | 27.66124 | 35036 ft | 466 kts | 171° |
| 2026-04-29 18:30 | 37.85585 | 27.67882 | 35038 ft | 467 kts | 171° |
| 2026-04-29 18:30 | 37.79225 | 27.69622 | 35039 ft | 467 kts | 171° |
| 2026-04-29 18:31 | 37.72855 | 27.71374 | 35052 ft | 467 kts | 171° |
| 2026-04-29 18:31 | 37.66546 | 27.73112 | 35036 ft | 467 kts | 171° |
| 2026-04-29 18:32 | 37.60184 | 27.74855 | 35037 ft | 466 kts | 171° |
| 2026-04-29 18:32 | 37.53835 | 27.76588 | 34747 ft | 466 kts | 171° |
| 2026-04-29 18:32 | 37.50663 | 27.77454 | 34505 ft | 465 kts | 171° |
| 2026-04-29 18:33 | 37.47498 | 27.78319 | 34261 ft | 465 kts | 171° |
| 2026-04-29 18:33 | 37.44385 | 27.79169 | 34008 ft | 463 kts | 171° |
| 2026-04-29 18:33 | 37.41240 | 27.80025 | 33383 ft | 463 kts | 170° |
| 2026-04-29 18:33 | 37.38090 | 27.80882 | 32817 ft | 460 kts | 170° |
| 2026-04-29 18:34 | 37.34975 | 27.81730 | 32255 ft | 458 kts | 170° |
| 2026-04-29 18:34 | 37.32872 | 27.82301 | 31864 ft | 456 kts | 170° |
| 2026-04-29 18:34 | 37.28776 | 27.83411 | 31119 ft | 454 kts | 170° |
| 2026-04-29 18:34 | 37.25691 | 27.84244 | 30586 ft | 452 kts | 170° |
| 2026-04-29 18:35 | 37.22624 | 27.85070 | 30022 ft | 450 kts | 170° |
| 2026-04-29 18:35 | 37.19566 | 27.85894 | 29429 ft | 447 kts | 170° |
| 2026-04-29 18:35 | 37.16541 | 27.86715 | 28888 ft | 443 kts | 170° |
| 2026-04-29 18:35 | 37.13541 | 27.87529 | 28346 ft | 439 kts | 170° |
| 2026-04-29 18:36 | 37.10592 | 27.88330 | 27830 ft | 436 kts | 169° |
| 2026-04-29 18:36 | 37.07611 | 27.89140 | 27297 ft | 432 kts | 169° |
| 2026-04-29 18:36 | 37.04683 | 27.89936 | 26789 ft | 429 kts | 169° |
| 2026-04-29 18:36 | 37.01772 | 27.90725 | 26262 ft | 426 kts | 169° |
| 2026-04-29 18:37 | 36.98889 | 27.91503 | 25798 ft | 421 kts | 169° |
| 2026-04-29 18:37 | 36.96032 | 27.92272 | 25319 ft | 418 kts | 169° |
| 2026-04-29 18:37 | 36.93202 | 27.93032 | 24854 ft | 414 kts | 169° |
| 2026-04-29 18:37 | 36.90392 | 27.93787 | 24399 ft | 411 kts | 169° |
| 2026-04-29 18:38 | 36.87606 | 27.94536 | 23928 ft | 408 kts | 169° |
| 2026-04-29 18:38 | 36.84869 | 27.95272 | 23455 ft | 406 kts | 169° |
| 2026-04-29 18:38 | 36.82121 | 27.96006 | 22948 ft | 402 kts | 169° |
| 2026-04-29 18:38 | 36.79401 | 27.96732 | 22488 ft | 397 kts | 169° |
| 2026-04-29 18:39 | 36.76713 | 27.97452 | 22024 ft | 394 kts | 169° |
| 2026-04-29 18:39 | 36.74047 | 27.98166 | 21569 ft | 390 kts | 169° |
| 2026-04-29 18:39 | 36.71403 | 27.98873 | 21104 ft | 387 kts | 169° |
| 2026-04-29 18:39 | 36.68779 | 27.99573 | 20638 ft | 384 kts | 169° |
| 2026-04-29 18:40 | 36.66165 | 28.00269 | 20175 ft | 382 kts | 169° |
| 2026-04-29 18:40 | 36.63569 | 28.00961 | 19714 ft | 380 kts | 169° |
| 2026-04-29 18:40 | 36.60987 | 28.01646 | 19251 ft | 378 kts | 169° |
| 2026-04-29 18:40 | 36.58417 | 28.02328 | 18796 ft | 377 kts | 168° |
| 2026-04-29 18:41 | 36.50770 | 28.04364 | 17398 ft | 371 kts | 168° |
| 2026-04-29 18:41 | 36.48259 | 28.05028 | 16960 ft | 367 kts | 168° |
| 2026-04-29 18:42 | 36.45790 | 28.05640 | 16530 ft | 364 kts | 169° |
| 2026-04-29 18:42 | 36.43301 | 28.06205 | 16101 ft | 362 kts | 170° |
| 2026-04-29 18:42 | 36.40836 | 28.06741 | 15666 ft | 359 kts | 170° |
| 2026-04-29 18:42 | 36.38377 | 28.07270 | 15232 ft | 357 kts | 170° |
| 2026-04-29 18:43 | 36.35990 | 28.08075 | 14816 ft | 355 kts | 157° |
| 2026-04-29 18:43 | 36.33844 | 28.09547 | 14389 ft | 352 kts | 143° |
| 2026-04-29 18:43 | 36.32051 | 28.11603 | 13956 ft | 351 kts | 129° |
| 2026-04-29 18:43 | 36.30609 | 28.14027 | 13489 ft | 349 kts | 124° |
| 2026-04-29 18:44 | 36.29200 | 28.16476 | 13042 ft | 347 kts | 125° |
| 2026-04-29 18:44 | 36.27800 | 28.18897 | 12597 ft | 345 kts | 125° |
| 2026-04-29 18:44 | 36.26421 | 28.21278 | 12158 ft | 342 kts | 125° |
| 2026-04-29 18:44 | 36.25035 | 28.23662 | 11721 ft | 340 kts | 125° |
| 2026-04-29 18:45 | 36.23654 | 28.26033 | 11287 ft | 339 kts | 125° |
| 2026-04-29 18:45 | 36.22399 | 28.28492 | 10831 ft | 336 kts | 111° |
| 2026-04-29 18:45 | 36.21901 | 28.31291 | 10395 ft | 332 kts | 89° |
| 2026-04-29 18:45 | 36.22307 | 28.34042 | 10130 ft | 321 kts | 65° |
| 2026-04-29 18:46 | 36.23441 | 28.36333 | 10009 ft | 305 kts | 45° |
| 2026-04-29 18:46 | 36.24919 | 28.38157 | 9754 ft | 298 kts | 43° |
| 2026-04-29 18:46 | 36.26396 | 28.39942 | 9405 ft | 294 kts | 42° |
| 2026-04-29 18:46 | 36.27858 | 28.41705 | 9015 ft | 293 kts | 41° |
| 2026-04-29 18:47 | 36.29505 | 28.43150 | 8610 ft | 289 kts | 25° |
| 2026-04-29 18:47 | 36.31387 | 28.43963 | 8209 ft | 286 kts | 9° |
| 2026-04-29 18:47 | 36.33360 | 28.44184 | 7811 ft | 284 kts | 2° |
| 2026-04-29 18:47 | 36.35334 | 28.44317 | 7423 ft | 283 kts | 2° |
| 2026-04-29 18:48 | 36.37292 | 28.44460 | 7041 ft | 282 kts | 2° |
| 2026-04-29 18:48 | 36.39250 | 28.44608 | 6648 ft | 281 kts | 3° |
| 2026-04-29 18:48 | 36.41206 | 28.44756 | 6075 ft | 286 kts | 3° |
| 2026-04-29 18:48 | 36.43203 | 28.44725 | 5305 ft | 297 kts | 351° |
| 2026-04-29 18:49 | 36.45138 | 28.43889 | 4940 ft | 290 kts | 330° |
| 2026-04-29 18:49 | 36.46683 | 28.42386 | 4853 ft | 277 kts | 313° |
| 2026-04-29 18:49 | 36.47739 | 28.40496 | 4704 ft | 257 kts | 296° |
| 2026-04-29 18:49 | 36.48290 | 28.38472 | 4493 ft | 241 kts | 280° |
| 2026-04-29 18:50 | 36.48390 | 28.36411 | 4229 ft | 239 kts | 266° |
| 2026-04-29 18:50 | 36.48046 | 28.34401 | 3933 ft | 238 kts | 251° |
| 2026-04-29 18:50 | 36.47480 | 28.32467 | 3630 ft | 239 kts | 251° |
| 2026-04-29 18:50 | 36.46921 | 28.30534 | 3335 ft | 233 kts | 251° |
| 2026-04-29 18:51 | 36.46387 | 28.28694 | 3023 ft | 221 kts | 252° |
| 2026-04-29 18:51 | 36.45876 | 28.26934 | 2740 ft | 209 kts | 251° |
| 2026-04-29 18:51 | 36.45404 | 28.25311 | 2466 ft | 192 kts | 252° |
| 2026-04-29 18:51 | 36.44967 | 28.23809 | 2225 ft | 179 kts | 252° |
| 2026-04-29 18:52 | 36.44564 | 28.22429 | 2031 ft | 166 kts | 253° |
| 2026-04-29 18:52 | 36.44180 | 28.21109 | 1800 ft | 155 kts | 253° |
| 2026-04-29 18:52 | 36.43821 | 28.19876 | 1587 ft | 149 kts | 253° |
| 2026-04-29 18:52 | 36.43473 | 28.18681 | 1401 ft | 145 kts | 254° |
| 2026-04-29 18:53 | 36.43131 | 28.17508 | 1209 ft | 144 kts | 252° |
| 2026-04-29 18:53 | 36.42791 | 28.16339 | 1016 ft | 143 kts | 253° |
| 2026-04-29 18:53 | 36.42450 | 28.15172 | 820 ft | 143 kts | 251° |
| 2026-04-29 18:53 | 36.42117 | 28.14030 | 651 ft | 140 kts | 253° |
| 2026-04-29 18:54 | 36.41804 | 28.12897 | 468 ft | 138 kts | 252° |
| 2026-04-29 18:54 | 36.41489 | 28.11771 | 363 ft | 141 kts | 249° |
| 2026-04-29 18:54 | 36.41135 | 28.10658 | 116 ft | 136 kts | 248° |
| 2026-04-29 18:54 | 36.40816 | 28.09583 | 29 ft | 123 kts | 249° |
| 2026-04-29 18:55 | 36.40590 | 28.08812 | 30 ft | 59 kts | 249° |
| 2026-04-29 18:55 | 36.40483 | 28.08445 | 25 ft | 40 kts | 251° |
| 2026-04-29 18:55 | 36.40394 | 28.08138 | 26 ft | 34 kts | 246° |
| 2026-04-29 18:55 | 36.40293 | 28.07972 | 26 ft | 19 kts | 220° |
| 2026-04-29 18:56 | 36.40204 | 28.07880 | 25 ft | 12 kts | 219° |
| 2026-04-29 18:56 | 36.40143 | 28.07889 | 28 ft | 8 kts | 111° |
| 2026-04-29 18:56 | 36.40157 | 28.07957 | 26 ft | 11 kts | 71° |
| 2026-04-29 18:56 | 36.40194 | 28.08079 | 27 ft | 16 kts | 69° |
| 2026-04-29 18:57 | 36.40231 | 28.08203 | 27 ft | 15 kts | 70° |
| 2026-04-29 18:57 | 36.40270 | 28.08339 | 28 ft | 17 kts | 70° |
| 2026-04-29 18:57 | 36.40311 | 28.08478 | 28 ft | 20 kts | 69° |
| 2026-04-29 18:57 | 36.40369 | 28.08670 | 29 ft | 24 kts | 69° |
| 2026-04-29 18:58 | 36.40403 | 28.08847 | 29 ft | 17 kts | 95° |
| 2026-04-29 18:58 | 36.40400 | 28.08989 | 29 ft | 16 kts | 82° |
| 2026-04-29 18:58 | 36.40400 | 28.09061 | 29 ft | 6 kts | 134° |
| 2026-04-29 18:58 | 36.40373 | 28.09079 | 29 ft | 2 kts | 159° |
| 2026-04-29 18:59 | 36.40364 | 28.09084 | 29 ft | 1 kts | 159° |
| 2026-04-29 18:59 | 36.40360 | 28.09085 | 29 ft | 1 kts | 159° |
| 2026-04-29 18:59 | 36.40358 | 28.09086 | 29 ft | 0 kts | 159° |